Time;durP1;ratioP1;P1;durP2;ratioP2;P2;SDS_P1;SDS_P2;PMS_P1;PMS_P2;Temp;Humidity;BMP_temperature;BMP_pressure;BME280_temperature;BME280_humidity;BME280_pressure;Samples;Min_cycle;Max_cycle;Signal;HPM_P1;HPM_P2
2022/04/14 00:02:08;;;;;;;7.43;4.33;;;;;;;11.08;81.66;96200.88;4976030;28;20214;-67
2022/04/14 00:04:35;;;;;;;7.30;3.67;;;;;;;10.88;82.65;96195.50;4975493;28;20219;-67
2022/04/14 00:07:02;;;;;;;9.37;4.83;;;;;;;11.08;82.37;96197.44;4975882;28;20288;-67
2022/04/14 00:09:29;;;;;;;6.60;3.63;;;;;;;11.06;80.50;96202.88;4975930;28;20251;-67
2022/04/14 00:11:56;;;;;;;13.03;5.03;;;;;;;11.25;79.30;96205.00;4975632;28;20255;-67
2022/04/14 00:14:24;;;;;;;10.37;4.90;;;;;;;11.23;81.21;96207.00;4975134;28;20223;-67
2022/04/14 00:16:50;;;;;;;7.10;3.97;;;;;;;11.04;81.64;96204.06;4975864;28;21053;-66
2022/04/14 00:19:17;;;;;;;6.13;3.57;;;;;;;11.09;79.60;96212.25;4976111;28;20242;-67
2022/04/14 00:21:44;;;;;;;6.40;3.57;;;;;;;11.08;79.10;96210.63;4974886;28;20203;-67
2022/04/14 00:24:10;;;;;;;8.03;4.10;;;;;;;11.09;78.92;96201.72;4975066;28;20214;-66
2022/04/14 00:26:37;;;;;;;6.67;3.53;;;;;;;10.75;80.84;96208.47;4975497;28;20203;-67
2022/04/14 00:29:03;;;;;;;5.90;3.40;;;;;;;10.83;81.54;96217.09;4974906;28;21259;-67
2022/04/14 00:31:31;;;;;;;11.73;3.43;;;;;;;11.21;79.88;96213.44;4975475;28;20719;-67
2022/04/14 00:33:58;;;;;;;7.20;3.50;;;;;;;10.97;78.96;96218.94;4976071;28;20813;-67
2022/04/14 00:36:24;;;;;;;5.97;3.80;;;;;;;11.10;78.03;96217.34;4974593;28;20207;-66
2022/04/14 00:38:50;;;;;;;9.53;3.87;;;;;;;11.09;78.58;96217.53;4975091;28;21248;-67
2022/04/14 00:41:18;;;;;;;9.77;4.03;;;;;;;10.93;81.28;96221.16;4975965;28;20750;-67
2022/04/14 00:43:44;;;;;;;5.93;3.57;;;;;;;10.50;82.93;96220.19;4974746;28;20211;-67
2022/04/14 00:46:11;;;;;;;10.20;3.83;;;;;;;10.34;81.66;96222.97;4975257;28;20214;-66
2022/04/14 00:48:39;;;;;;;7.23;3.37;;;;;;;10.89;80.39;96220.88;4975742;28;20227;-67
2022/04/14 00:51:07;;;;;;;7.23;3.80;;;;;;;10.86;81.41;96215.94;4974971;28;20227;-67
2022/04/14 00:53:33;;;;;;;6.20;3.70;;;;;;;10.90;80.96;96222.50;4974241;28;20208;-67
2022/04/14 00:56:00;;;;;;;8.60;4.37;;;;;;;10.90;82.62;96222.50;4974956;28;20214;-67
2022/04/14 00:58:27;;;;;;;13.37;3.90;;;;;;;11.12;81.28;96223.25;4975355;28;20231;-67
2022/04/14 01:00:53;;;;;;;10.27;4.43;;;;;;;11.07;80.72;96227.44;4975020;28;20292;-67
2022/04/14 01:03:20;;;;;;;7.17;3.70;;;;;;;10.93;79.33;96229.06;4974309;28;20235;-67
2022/04/14 01:05:48;;;;;;;6.13;3.80;;;;;;;11.05;79.51;96227.63;4975262;28;20207;-67
2022/04/14 01:08:17;;;;;;;6.27;3.50;;;;;;;11.24;80.25;96228.91;4974920;28;20223;-67
2022/04/14 01:10:47;;;;;;;7.43;3.77;;;;;;;11.13;81.41;96235.44;4974792;28;20222;-67
2022/04/14 01:13:13;;;;;;;9.20;4.23;;;;;;;10.98;82.43;96239.06;4974192;28;20608;-67
2022/04/14 01:15:40;;;;;;;9.40;3.83;;;;;;;10.98;81.85;96239.91;4975353;28;20211;-67
2022/04/14 01:18:07;;;;;;;6.83;3.93;;;;;;;11.10;81.85;96240.28;4974696;28;20230;-67
2022/04/14 01:20:33;;;;;;;8.27;4.10;;;;;;;11.08;81.78;96244.91;4974399;28;20207;-67
2022/04/14 01:23:04;;;;;;;11.70;4.73;;;;;;;11.26;82.06;96246.19;4974587;28;20206;-67
2022/04/14 01:25:34;;;;;;;9.37;4.33;;;;;;;11.37;81.84;96258.94;4975056;28;20211;-67
2022/04/14 01:28:01;;;;;;;14.37;3.70;;;;;;;11.21;81.57;96248.53;4975083;28;20222;-67
2022/04/14 01:30:28;;;;;;;9.03;4.10;;;;;;;10.92;80.02;96252.13;4974876;28;21040;-67
2022/04/14 01:32:54;;;;;;;6.30;3.83;;;;;;;10.56;81.39;96256.41;4973680;28;20223;-67
2022/04/14 01:35:21;;;;;;;6.33;3.67;;;;;;;10.90;81.01;96257.59;4974827;28;20211;-67
2022/04/14 01:37:47;;;;;;;11.90;4.03;;;;;;;10.85;81.77;96256.50;4974836;28;20447;-67
2022/04/14 01:40:14;;;;;;;7.30;4.10;;;;;;;10.84;82.64;96266.19;4974293;28;20226;-67
2022/04/14 01:42:42;;;;;;;8.47;4.00;;;;;;;10.98;82.45;96260.16;4973991;28;20207;-67
2022/04/14 01:45:10;;;;;;;6.83;3.83;;;;;;;11.09;81.27;96263.16;4974692;28;20699;-66
2022/04/14 01:47:41;;;;;;;7.83;4.10;;;;;;;11.08;80.94;96264.16;4974266;28;20227;-67
2022/04/14 01:50:09;;;;;;;8.80;3.80;;;;;;;11.10;81.51;96266.66;4974020;28;20202;-67
2022/04/14 01:52:36;;;;;;;6.57;3.70;;;;;;;11.07;80.54;96266.97;4973530;28;20231;-69
2022/04/14 01:55:03;;;;;;;8.33;3.57;;;;;;;10.90;80.73;96259.41;4974577;28;20679;-66
2022/04/14 01:57:30;;;;;;;7.70;3.90;;;;;;;10.92;80.62;96262.69;4974362;28;20239;-67
2022/04/14 01:59:58;;;;;;;6.17;3.33;;;;;;;10.82;80.29;96259.47;4974521;28;20274;-67
2022/04/14 02:02:25;;;;;;;9.57;3.47;;;;;;;10.77;79.98;96257.38;4973676;28;20199;-67
2022/04/14 02:04:51;;;;;;;8.80;3.60;;;;;;;10.64;80.88;96264.22;4974593;28;20199;-67
2022/04/14 02:07:18;;;;;;;7.60;3.57;;;;;;;10.27;83.21;96260.72;4974287;28;20219;-70
2022/04/14 02:09:44;;;;;;;8.37;3.83;;;;;;;10.54;80.92;96258.41;4974079;28;20684;-67
2022/04/14 02:12:12;;;;;;;5.40;3.50;;;;;;;10.65;81.17;96256.13;4973758;28;20734;-66
2022/04/14 02:14:39;;;;;;;8.13;4.10;;;;;;;10.23;84.07;96262.06;4973978;28;20211;-67
2022/04/14 02:17:08;;;;;;;7.93;3.60;;;;;;;10.70;82.63;96260.91;4974270;28;20223;-66
2022/04/14 02:19:34;;;;;;;8.73;4.23;;;;;;;10.55;82.40;96254.75;4974418;28;20219;-66
2022/04/14 02:22:01;;;;;;;7.63;4.30;;;;;;;10.61;82.47;96256.69;4974214;28;20200;-67
2022/04/14 02:24:27;;;;;;;11.57;4.03;;;;;;;10.64;82.61;96256.31;4973124;28;20584;-67
2022/04/14 02:26:55;;;;;;;8.23;3.97;;;;;;;10.75;82.79;96258.56;4974251;28;20223;-67
2022/04/14 02:29:22;;;;;;;7.90;3.77;;;;;;;10.67;80.91;96261.25;4970091;28;20213;-67
2022/04/14 02:31:48;;;;;;;6.10;3.40;;;;;;;10.58;82.00;96255.22;4973930;28;20224;-66
2022/04/14 02:34:16;;;;;;;5.60;3.50;;;;;;;10.80;81.65;96248.31;4973377;28;20208;-66
2022/04/14 02:36:42;;;;;;;6.77;3.70;;;;;;;10.61;81.58;96259.31;4973839;28;20234;-67
2022/04/14 02:39:10;;;;;;;8.33;4.10;;;;;;;10.35;81.87;96258.88;4973552;28;20214;-67
2022/04/14 02:41:36;;;;;;;6.90;3.70;;;;;;;10.34;83.69;96265.13;4974096;28;20203;-66
2022/04/14 02:44:03;;;;;;;8.83;4.63;;;;;;;10.35;84.64;96270.22;4973594;28;20199;-67
2022/04/14 02:46:30;;;;;;;9.17;4.07;;;;;;;10.25;85.60;96274.06;4975995;28;20210;-66
2022/04/14 02:48:56;;;;;;;9.73;4.17;;;;;;;10.34;83.94;96280.91;4977175;28;20208;-67
2022/04/14 02:51:24;;;;;;;7.53;4.47;;;;;;;10.60;84.83;96276.13;4977314;28;20214;-67
2022/04/14 02:53:50;;;;;;;12.40;4.80;;;;;;;10.62;85.64;96276.78;4975777;28;20203;-67
2022/04/14 02:56:17;;;;;;;11.23;4.83;;;;;;;10.68;84.74;96281.31;4977114;28;20569;-66
2022/04/14 02:58:43;;;;;;;8.60;4.50;;;;;;;10.66;85.13;96280.69;4978300;28;20207;-67
2022/04/14 03:01:10;;;;;;;11.50;5.00;;;;;;;10.80;84.74;96283.38;4976702;28;20210;-67
2022/04/14 03:03:36;;;;;;;7.97;4.30;;;;;;;10.68;85.41;96284.78;4976001;28;20208;-67
2022/04/14 03:06:03;;;;;;;10.77;4.80;;;;;;;10.58;86.79;96289.47;4977278;28;20635;-67
2022/04/14 03:08:31;;;;;;;9.50;5.03;;;;;;;10.69;87.50;96290.88;4976792;28;20227;-66
2022/04/14 03:10:57;;;;;;;9.13;5.27;;;;;;;10.54;87.92;96295.28;4976386;28;20223;-67
2022/04/14 03:13:24;;;;;;;10.00;4.93;;;;;;;10.42;87.87;96281.69;4976580;28;20223;-67
2022/04/14 03:15:51;;;;;;;12.70;4.50;;;;;;;10.60;86.67;96290.13;4976869;28;20210;-67
2022/04/14 03:18:17;;;;;;;9.17;5.40;;;;;;;10.57;86.79;96292.28;4976539;28;20227;-67
2022/04/14 03:20:44;;;;;;;14.13;5.37;;;;;;;10.40;87.56;96298.69;4976800;28;20208;-67
2022/04/14 03:23:11;;;;;;;8.20;4.90;;;;;;;10.54;87.48;96290.81;4975904;28;20203;-67
2022/04/14 03:25:39;;;;;;;7.67;4.37;;;;;;;10.71;87.55;96291.53;4976306;28;20215;-67
2022/04/14 03:28:05;;;;;;;15.10;4.97;;;;;;;10.61;87.33;96280.41;4976622;28;20235;-67
2022/04/14 03:30:32;;;;;;;11.30;5.10;;;;;;;10.63;87.01;96288.97;4976864;28;20218;-67
2022/04/14 03:32:58;;;;;;;13.70;4.93;;;;;;;10.63;86.20;96279.22;4975786;28;20230;-67
2022/04/14 03:35:25;;;;;;;13.43;5.20;;;;;;;10.71;85.29;96286.25;4976330;28;20211;-67
2022/04/14 03:37:51;;;;;;;11.47;4.60;;;;;;;10.73;85.09;96286.88;4976486;28;20239;-67
2022/04/14 03:40:18;;;;;;;11.27;5.20;;;;;;;10.82;85.59;96286.66;4976710;28;20260;-67
2022/04/14 03:42:46;;;;;;;9.03;5.03;;;;;;;10.51;87.28;96291.19;4975555;28;21066;-67
2022/04/14 03:45:12;;;;;;;9.13;4.57;;;;;;;10.73;86.34;96292.16;4976513;28;20207;-67
2022/04/14 03:47:39;;;;;;;9.53;5.07;;;;;;;10.65;86.81;96303.56;4976672;28;20285;-67
2022/04/14 03:50:07;;;;;;;7.83;4.60;;;;;;;10.35;87.00;96293.09;4976005;28;20199;-67
2022/04/14 03:52:33;;;;;;;9.57;4.87;;;;;;;10.51;86.00;96301.72;4975066;28;20312;-66
2022/04/14 03:55:00;;;;;;;14.53;4.53;;;;;;;10.45;86.40;96301.56;4976679;28;20209;-67
2022/04/14 03:57:26;;;;;;;8.20;4.77;;;;;;;10.24;87.78;96297.94;4975901;28;20734;-67
2022/04/14 03:59:54;;;;;;;8.40;4.57;;;;;;;10.47;85.50;96296.97;4976099;28;20207;-67
2022/04/14 04:02:21;;;;;;;10.53;4.87;;;;;;;10.32;85.21;96300.53;4975465;28;21251;-66
2022/04/14 04:04:47;;;;;;;7.27;4.50;;;;;;;10.25;86.15;96295.13;4975903;28;20207;-67
2022/04/14 04:07:14;;;;;;;17.80;6.20;;;;;;;10.33;87.24;96300.34;4975755;28;20215;-67
2022/04/14 04:09:40;;;;;;;11.77;5.27;;;;;;;10.25;87.79;96294.31;4976953;28;20211;-69
2022/04/14 04:12:08;;;;;;;13.77;5.10;;;;;;;10.54;87.10;96297.94;4975941;28;20322;-66
2022/04/14 04:14:35;;;;;;;12.43;5.83;;;;;;;10.42;87.62;96299.31;4974868;28;20700;-66
2022/04/14 04:17:04;;;;;;;12.13;5.70;;;;;;;10.71;87.48;96296.81;4975880;28;20219;-66
2022/04/14 04:19:31;;;;;;;11.47;4.90;;;;;;;10.53;85.45;96296.28;4975972;28;21191;-66
2022/04/14 04:21:57;;;;;;;13.00;5.80;;;;;;;10.50;85.60;96299.25;4975972;28;20210;-67
2022/04/14 04:24:24;;;;;;;10.90;5.20;;;;;;;10.40;86.55;96303.94;4974763;28;20210;-67
2022/04/14 04:26:50;;;;;;;10.87;5.37;;;;;;;10.48;85.32;96302.06;4975663;28;20658;-67
2022/04/14 04:29:17;;;;;;;6.50;4.33;;;;;;;10.35;84.21;96306.28;4975244;28;20770;-67
2022/04/14 04:31:43;;;;;;;12.10;5.03;;;;;;;10.21;84.83;96309.66;4975329;28;20210;-66
2022/04/14 04:34:11;;;;;;;10.70;5.20;;;;;;;10.15;84.07;96314.78;4975017;28;20230;-66
2022/04/14 04:36:38;;;;;;;12.67;5.37;;;;;;;10.14;84.43;96313.94;4975117;28;20598;-67
2022/04/14 04:39:04;;;;;;;8.97;4.97;;;;;;;9.97;84.73;96325.56;4975218;28;20211;-69
2022/04/14 04:41:31;;;;;;;10.40;4.20;;;;;;;9.63;84.61;96323.34;4975459;28;20752;-66
2022/04/14 04:43:57;;;;;;;7.47;3.90;;;;;;;9.29;84.27;96330.66;4974247;28;20204;-66
2022/04/14 04:46:24;;;;;;;9.97;4.57;;;;;;;9.50;87.96;96333.59;4975211;28;20210;-67
2022/04/14 04:48:50;;;;;;;12.10;5.20;;;;;;;9.71;88.80;96340.75;4975718;28;20207;-66
2022/04/14 04:51:18;;;;;;;14.83;5.10;;;;;;;10.07;88.83;96326.16;4975737;28;20199;-67
2022/04/14 04:53:45;;;;;;;12.10;4.60;;;;;;;9.91;87.09;96330.66;4974271;28;20729;-67
2022/04/14 04:56:11;;;;;;;12.47;5.23;;;;;;;9.68;89.19;96335.81;4975687;28;20203;-69
2022/04/14 04:58:38;;;;;;;12.17;4.97;;;;;;;9.85;89.01;96334.78;4975164;28;20242;-66
2022/04/14 05:01:04;;;;;;;13.03;5.23;;;;;;;10.05;88.62;96333.41;4975121;28;20203;-66
2022/04/14 05:03:31;;;;;;;10.23;5.53;;;;;;;10.13;87.74;96330.75;4974797;28;20207;-66
2022/04/14 05:05:57;;;;;;;13.27;6.03;;;;;;;10.16;87.90;96334.88;4975210;28;20998;-66
2022/04/14 05:08:25;;;;;;;14.53;5.37;;;;;;;10.39;87.48;96331.28;4975130;28;20223;-66
2022/04/14 05:10:52;;;;;;;9.00;5.20;;;;;;;10.22;87.90;96342.91;4975210;28;20207;-66
2022/04/14 05:13:18;;;;;;;17.40;5.73;;;;;;;10.26;88.22;96346.81;4974272;28;20229;-66
2022/04/14 05:15:45;;;;;;;17.97;6.03;;;;;;;10.00;88.52;96354.16;4975107;28;20664;-66
2022/04/14 05:18:11;;;;;;;12.57;5.60;;;;;;;9.95;89.21;96361.75;4975223;28;20238;-66
2022/04/14 05:20:38;;;;;;;11.83;5.20;;;;;;;10.12;88.72;96363.34;4974940;28;20210;-66
2022/04/14 05:23:08;;;;;;;14.30;5.57;;;;;;;10.48;88.56;96353.94;4974319;28;20199;-66
2022/04/14 05:25:36;;;;;;;11.67;6.07;;;;;;;10.59;88.05;96353.53;4975264;28;20207;-66
2022/04/14 05:28:03;;;;;;;12.37;5.30;;;;;;;10.35;87.81;96364.22;4974690;28;20223;-66
2022/04/14 05:30:30;;;;;;;11.00;5.20;;;;;;;10.32;86.38;96364.53;4975163;28;20207;-66
2022/04/14 05:32:56;;;;;;;10.00;4.97;;;;;;;10.39;85.57;96365.50;4974284;28;20223;-66
2022/04/14 05:35:23;;;;;;;11.70;5.60;;;;;;;10.60;85.62;96370.97;4974823;28;20207;-66
2022/04/14 05:37:49;;;;;;;11.30;5.03;;;;;;;10.71;85.88;96365.31;4974362;28;20242;-66
2022/04/14 05:40:16;;;;;;;15.50;6.17;;;;;;;10.87;86.08;96359.94;4974652;28;20214;-66
2022/04/14 05:42:46;;;;;;;20.97;8.07;;;;;;;11.10;86.35;96358.94;4973635;28;20203;-67
2022/04/14 05:45:13;;;;;;;21.67;8.40;;;;;;;11.13;86.27;96359.38;4974596;28;20203;-66
2022/04/14 05:47:40;;;;;;;23.50;8.60;;;;;;;11.27;85.47;96358.63;4974700;28;20312;-66
2022/04/14 05:50:07;;;;;;;24.80;10.60;;;;;;;11.59;84.88;96364.44;4974278;28;20203;-67
2022/04/14 05:52:34;;;;;;;22.83;10.37;;;;;;;11.62;83.24;96368.53;4973603;28;20570;-69
2022/04/14 05:55:02;;;;;;;25.50;9.53;;;;;;;11.79;83.22;96362.13;4976286;28;20683;-66
2022/04/14 05:57:28;;;;;;;24.43;8.97;;;;;;;12.01;82.51;96366.47;4974806;28;20230;-66
2022/04/14 05:59:56;;;;;;;16.13;7.77;;;;;;;12.31;80.67;96364.44;4974312;28;20222;-66
2022/04/14 06:02:23;;;;;;;15.20;7.13;;;;;;;12.16;80.00;96368.13;4973885;28;20218;-66
2022/04/14 06:04:49;;;;;;;17.77;7.60;;;;;;;12.46;79.54;96364.41;4974851;28;20226;-66
2022/04/14 06:07:16;;;;;;;15.87;7.60;;;;;;;12.35;78.32;96367.56;4974051;28;20223;-67
2022/04/14 06:09:42;;;;;;;16.93;7.07;;;;;;;12.51;78.22;96367.31;4973679;28;20616;-66
2022/04/14 06:12:09;;;;;;;16.67;7.40;;;;;;;12.39;77.99;96363.53;4974453;28;20204;-67
2022/04/14 06:14:36;;;;;;;15.27;7.90;;;;;;;12.40;77.69;96363.34;4974829;28;20245;-66
2022/04/14 06:17:04;;;;;;;18.33;7.67;;;;;;;12.85;76.95;96371.81;4974263;28;20230;-66
2022/04/14 06:19:31;;;;;;;21.07;8.00;;;;;;;12.69;77.29;96371.22;4974236;28;20203;-66
2022/04/14 06:21:57;;;;;;;14.07;7.03;;;;;;;12.74;76.45;96373.28;4976468;28;20222;-66
2022/04/14 06:24:24;;;;;;;12.73;6.83;;;;;;;12.92;76.59;96371.91;4976982;28;21149;-66
2022/04/14 06:26:50;;;;;;;11.53;6.20;;;;;;;12.91;75.52;96372.91;4977529;28;20223;-67
2022/04/14 06:29:17;;;;;;;15.17;7.03;;;;;;;12.86;75.51;96372.66;4977536;28;20203;-66
2022/04/14 06:31:43;;;;;;;15.13;6.27;;;;;;;12.90;75.27;96379.19;4976940;28;20207;-66
2022/04/14 06:34:11;;;;;;;13.30;6.40;;;;;;;13.17;75.06;96378.47;4976827;28;20223;-66
2022/04/14 06:36:37;;;;;;;13.43;6.27;;;;;;;12.97;75.86;96372.13;4977148;28;20226;-66
2022/04/14 06:39:04;;;;;;;15.73;6.50;;;;;;;13.29;74.88;96376.94;4977019;28;20211;-67
2022/04/14 06:41:30;;;;;;;16.93;6.93;;;;;;;13.35;74.89;96379.63;4977402;28;20230;-67
2022/04/14 06:43:57;;;;;;;17.43;6.90;;;;;;;13.57;74.67;96383.91;4976733;28;20196;-66
2022/04/14 06:46:25;;;;;;;14.67;6.73;;;;;;;13.66;74.78;96382.78;4977261;28;20207;-66
2022/04/14 06:48:51;;;;;;;14.65;7.60;;;;;;;13.72;74.63;96377.53;4974502;28;20210;-66
2022/04/14 06:51:19;;;;;;;13.75;7.05;;;;;;;14.20;73.54;96372.13;4975869;28;20214;-66
2022/04/14 06:53:48;;;;;;;12.68;6.68;;;;;;;14.11;74.39;96377.81;4975419;28;20219;-66
2022/04/14 06:56:14;;;;;;;13.20;7.28;;;;;;;14.08;74.73;96378.19;4976255;28;20207;-66
2022/04/14 06:58:42;;;;;;;18.30;7.22;;;;;;;13.92;74.95;96383.75;4975604;28;20223;-66
2022/04/14 07:01:09;;;;;;;12.45;6.75;;;;;;;14.28;74.56;96379.13;4975751;28;20231;-66
2022/04/14 07:03:35;;;;;;;13.88;6.80;;;;;;;14.59;74.40;96377.63;4975513;28;20211;-66
2022/04/14 07:06:02;;;;;;;15.70;6.55;;;;;;;14.70;73.33;96375.25;4975527;28;20237;-66
2022/04/14 07:08:33;;;;;;;12.30;6.63;;;;;;;15.04;72.86;96382.28;4976027;28;20267;-66
2022/04/14 07:11:00;;;;;;;10.40;6.47;;;;;;;15.13;72.34;96376.56;4975339;28;20199;-66
2022/04/14 07:13:27;;;;;;;12.25;6.35;;;;;;;15.22;72.80;96380.69;4975183;28;20230;-66
2022/04/14 07:15:55;;;;;;;20.20;5.88;;;;;;;15.06;71.30;96388.19;4975467;28;20208;-66
2022/04/14 07:18:22;;;;;;;15.70;6.93;;;;;;;15.04;72.56;96391.03;4975420;28;20238;-66
2022/04/14 07:20:49;;;;;;;21.83;6.75;;;;;;;15.31;71.48;96385.63;4975517;28;20265;-66
2022/04/14 07:23:16;;;;;;;16.42;6.78;;;;;;;15.37;71.78;96389.31;4975287;28;20203;-66
2022/04/14 07:25:44;;;;;;;14.10;6.75;;;;;;;15.34;71.88;96390.53;4975626;28;20211;-66
2022/04/14 07:28:11;;;;;;;10.15;6.30;;;;;;;15.30;71.90;96394.63;4976168;28;20224;-66
2022/04/14 07:30:39;;;;;;;14.15;6.93;;;;;;;15.35;70.88;96391.34;4975158;28;20214;-66
2022/04/14 07:33:06;;;;;;;18.60;7.00;;;;;;;15.41;70.56;96396.69;4974524;28;20210;-66
2022/04/14 07:35:33;;;;;;;13.65;6.60;;;;;;;15.42;70.98;96392.97;4976355;28;20207;-66
2022/04/14 07:38:00;;;;;;;18.38;7.60;;;;;;;15.26;71.06;96398.69;4975532;28;20237;-66
2022/04/14 07:40:27;;;;;;;16.40;7.53;;;;;;;15.28;70.51;96399.28;4975745;28;20208;-66
2022/04/14 07:42:56;;;;;;;15.52;6.80;;;;;;;15.53;70.45;96402.19;4975585;28;20210;-66
2022/04/14 07:45:23;;;;;;;14.10;6.63;;;;;;;15.35;70.27;96402.78;4976097;28;20211;-66
2022/04/14 07:47:49;;;;;;;12.98;6.95;;;;;;;15.44;70.02;96406.88;4975349;28;20227;-66
2022/04/14 07:50:17;;;;;;;11.38;6.35;;;;;;;15.54;70.48;96406.47;4975978;28;20208;-66
2022/04/14 07:52:48;;;;;;;13.88;6.95;;;;;;;15.77;69.50;96401.59;4975556;28;20207;-66
2022/04/14 07:55:19;;;;;;;10.77;6.25;;;;;;;15.90;68.82;96405.88;4975532;28;20272;-66
2022/04/14 07:57:45;;;;;;;13.43;6.72;;;;;;;15.81;69.17;96408.13;4975746;28;20233;-66
2022/04/14 08:00:14;;;;;;;14.65;6.50;;;;;;;16.06;69.11;96408.13;4975588;28;20206;-66
2022/04/14 08:02:47;;;;;;;16.75;7.57;;;;;;;16.28;68.90;96406.91;4974791;28;20204;-66
2022/04/14 08:05:13;;;;;;;16.67;6.95;;;;;;;16.06;68.16;96402.81;4975609;28;20580;-66
2022/04/14 08:07:40;;;;;;;13.13;6.40;;;;;;;15.92;68.98;96406.50;4975866;28;20235;-66
2022/04/14 08:10:07;;;;;;;18.20;7.38;;;;;;;16.25;68.42;96411.78;4975261;28;20211;-66
2022/04/14 08:12:33;;;;;;;12.35;7.00;;;;;;;16.25;68.46;96415.22;4974807;28;20229;-66
2022/04/14 08:15:00;;;;;;;14.07;6.65;;;;;;;16.45;68.40;96412.59;4975880;28;21091;-66
2022/04/14 08:17:28;;;;;;;14.20;7.18;;;;;;;16.66;67.76;96421.09;4974815;28;20322;-66
2022/04/14 08:19:54;;;;;;;12.25;6.88;;;;;;;16.82;67.56;96421.44;4974762;28;20204;-66
2022/04/14 08:22:21;;;;;;;14.88;7.30;;;;;;;16.81;67.20;96425.13;4973450;28;20223;-66
2022/04/14 08:24:50;;;;;;;14.60;7.45;;;;;;;17.13;66.18;96425.00;4973454;28;20199;-66
2022/04/14 08:27:18;;;;;;;18.88;6.80;;;;;;;17.09;66.37;96421.16;4973831;28;20226;-66
2022/04/14 08:29:44;;;;;;;15.35;7.28;;;;;;;17.18;67.36;96427.03;4974580;28;20302;-66
2022/04/14 08:32:11;;;;;;;14.98;6.65;;;;;;;17.48;66.68;96426.28;4973468;28;20693;-66
2022/04/14 08:34:40;;;;;;;12.75;6.70;;;;;;;17.59;66.51;96422.94;4974049;28;20235;-66
2022/04/14 08:37:07;;;;;;;13.32;6.15;;;;;;;17.57;63.76;96424.97;4974765;28;20215;-66
2022/04/14 08:39:34;;;;;;;21.40;6.78;;;;;;;17.34;64.62;96432.69;4974302;28;20219;-66
2022/04/14 08:42:09;;;;;;;14.52;7.15;;;;;;;17.84;64.28;96429.09;4973650;28;20318;-66
2022/04/14 08:44:41;;;;;;;18.88;6.70;;;;;;;17.69;65.15;96431.25;4972960;28;20207;-66
2022/04/14 08:47:09;;;;;;;15.10;7.13;;;;;;;17.87;65.06;96433.97;4974582;28;20390;-66
2022/04/14 08:49:36;;;;;;;20.92;7.78;;;;;;;17.93;64.32;96435.78;4974002;28;20218;-66
2022/04/14 08:52:04;;;;;;;15.60;7.68;;;;;;;18.21;66.32;96430.88;4974040;28;20210;-66
2022/04/14 08:54:32;;;;;;;14.25;6.30;;;;;;;18.31;62.41;96425.84;4973485;28;20227;-66
2022/04/14 08:57:00;;;;;;;25.40;7.88;;;;;;;18.34;62.49;96437.72;4973249;28;20223;-66
2022/04/14 08:59:28;;;;;;;14.32;7.95;;;;;;;18.48;61.51;96441.06;4974204;28;20504;-66
2022/04/14 09:01:56;;;;;;;17.40;7.60;;;;;;;18.51;61.42;96428.09;4974219;28;20206;-66
2022/04/14 09:04:22;;;;;;;13.43;7.05;;;;;;;18.37;63.53;96431.94;4973461;28;20290;-66
2022/04/14 09:06:49;;;;;;;17.63;7.97;;;;;;;18.41;62.89;96430.44;4974428;28;20711;-66
2022/04/14 09:09:17;;;;;;;16.60;7.53;;;;;;;18.72;66.58;96440.19;4974735;28;20214;-66
2022/04/14 09:11:43;;;;;;;14.57;6.90;;;;;;;18.71;62.59;96431.38;4974042;28;20208;-66
2022/04/14 09:14:10;;;;;;;16.48;8.02;;;;;;;18.70;61.75;96437.75;4972783;28;20682;-66
2022/04/14 09:16:37;;;;;;;18.33;7.38;;;;;;;19.14;61.19;96424.94;4974227;28;20215;-66
2022/04/14 09:19:04;;;;;;;13.20;7.40;;;;;;;19.15;60.50;96431.09;4974598;28;20203;-67
2022/04/14 09:21:30;;;;;;;19.45;7.68;;;;;;;19.12;60.43;96429.66;4974325;28;20680;-67
2022/04/14 09:23:57;;;;;;;15.70;7.63;;;;;;;19.29;60.84;96427.19;4973371;28;20210;-66
2022/04/14 09:26:25;;;;;;;18.50;8.25;;;;;;;19.90;60.05;96431.25;4974115;28;20214;-66
2022/04/14 09:29:03;;;;;;;16.73;7.95;;;;;;;19.87;57.04;96432.50;4974127;28;20245;-67
2022/04/14 09:31:30;;;;;;;20.50;8.15;;;;;;;19.47;58.72;96427.16;4974445;28;20203;-66
2022/04/14 09:33:57;;;;;;;18.23;7.07;;;;;;;19.38;58.13;96428.50;4972996;28;20231;-66
2022/04/14 09:36:27;;;;;;;14.35;7.22;;;;;;;19.67;57.97;96423.97;4973580;28;20208;-66
2022/04/14 09:38:58;;;;;;;14.15;7.18;;;;;;;20.01;56.29;96427.78;4973897;28;20214;-66
2022/04/14 09:41:34;;;;;;;23.38;8.52;;;;;;;20.07;55.84;96427.69;4974531;28;20214;-66
2022/04/14 09:44:03;;;;;;;15.98;7.50;;;;;;;20.02;56.07;96426.75;4972672;28;20209;-66
2022/04/14 09:46:30;;;;;;;17.13;7.50;;;;;;;20.34;56.27;96428.84;4973476;28;20207;-66
2022/04/14 09:49:07;;;;;;;16.85;7.82;;;;;;;20.63;56.48;96427.94;4975266;28;20213;-67
2022/04/14 09:51:35;;;;;;;14.38;7.95;;;;;;;20.94;53.74;96423.84;4974453;28;20203;-66
2022/04/14 09:54:06;;;;;;;16.33;8.07;;;;;;;21.32;53.19;96421.41;4972490;28;20223;-67
2022/04/14 09:56:48;;;;;;;18.13;9.02;;;;;;;21.32;52.09;96418.72;4977038;28;20211;-66
2022/04/14 09:59:16;;;;;;;16.48;8.38;;;;;;;20.86;53.34;96418.03;4977436;28;20752;-67
2022/04/14 10:01:45;;;;;;;16.30;6.93;;;;;;;21.02;53.63;96417.31;4977124;28;20226;-67
2022/04/14 10:04:32;;;;;;;15.40;7.68;;;;;;;21.42;52.51;96413.53;4977535;28;20203;-66
2022/04/14 10:07:09;;;;;;;14.68;7.57;;;;;;;21.08;51.58;96406.44;4977583;28;20841;-66
2022/04/14 10:09:38;;;;;;;11.63;6.68;;;;;;;20.90;51.28;96411.97;4977318;28;20199;-66
2022/04/14 10:12:27;;;;;;;18.88;7.25;;;;;;;21.78;52.51;96411.31;4978029;28;20196;-67
2022/04/14 10:15:04;;;;;;;20.50;7.47;;;;;;;21.81;52.88;96404.66;4977699;28;20219;-66
2022/04/14 10:17:32;;;;;;;13.77;7.82;;;;;;;21.90;51.87;96405.88;4977433;28;20743;-67
2022/04/14 10:19:59;;;;;;;14.52;7.72;;;;;;;21.73;50.73;96411.22;4977896;28;20203;-66
2022/04/14 10:22:27;;;;;;;12.05;6.43;;;;;;;21.48;49.28;96408.03;4977244;28;20211;-66
2022/04/14 10:24:54;;;;;;;13.02;7.20;;;;;;;21.62;52.02;96411.28;4977603;28;20241;-66
2022/04/14 10:27:23;;;;;;;12.65;6.93;;;;;;;21.90;50.20;96406.69;4977194;28;20223;-67
2022/04/14 10:29:50;;;;;;;13.50;7.78;;;;;;;21.53;51.27;96410.03;4977072;28;20207;-66
2022/04/14 10:32:17;;;;;;;14.38;7.05;;;;;;;21.89;51.34;96406.94;4977042;28;20203;-67
2022/04/14 10:34:46;;;;;;;18.10;7.35;;;;;;;21.93;49.01;96411.59;4977507;28;20227;-67
2022/04/14 10:37:29;;;;;;;18.90;7.18;;;;;;;22.08;49.99;96406.44;4977561;28;20223;-67
2022/04/14 10:39:56;;;;;;;16.85;6.90;;;;;;;21.95;50.90;96405.97;4977456;28;20199;-67
2022/04/14 10:42:27;;;;;;;14.15;6.90;;;;;;;22.27;48.37;96408.66;4976672;28;20207;-67
2022/04/14 10:44:54;;;;;;;17.55;6.93;;;;;;;22.57;48.46;96403.78;4977481;28;20202;-67
2022/04/14 10:47:35;;;;;;;16.13;7.95;;;;;;;22.98;46.57;96401.38;4977836;28;20231;-67
2022/04/14 10:50:03;;;;;;;16.08;7.15;;;;;;;22.65;46.64;96399.84;4977504;28;20720;-67
2022/04/14 10:52:29;;;;;;;13.63;7.03;;;;;;;22.84;47.08;96400.09;4976622;28;20208;-66
2022/04/14 10:54:57;;;;;;;13.50;6.10;;;;;;;22.40;45.71;96396.78;4977036;28;21026;-66
2022/04/14 10:57:38;;;;;;;13.65;6.40;;;;;;;23.24;45.50;96389.09;4976701;28;20238;-67
2022/04/14 11:00:33;;;;;;;12.13;6.57;;;;;;;23.44;47.03;96390.91;4976487;28;20207;-67
2022/04/14 11:03:04;;;;;;;11.80;6.05;;;;;;;23.49;43.74;96393.66;4976905;28;20732;-67
2022/04/14 11:05:41;;;;;;;11.25;6.22;;;;;;;23.50;42.89;96389.91;4976364;28;20203;-66
2022/04/14 11:08:21;;;;;;;11.52;5.70;;;;;;;23.62;44.12;96387.88;4976817;28;20222;-66
2022/04/14 11:10:53;;;;;;;10.73;5.97;;;;;;;23.25;46.50;96390.72;4977580;28;20211;-67
2022/04/14 11:13:21;;;;;;;16.10;5.82;;;;;;;23.69;44.31;96391.22;4975987;28;20721;-66
2022/04/14 11:15:48;;;;;;;12.27;6.10;;;;;;;23.28;42.77;96388.34;4976740;28;20703;-66
2022/04/14 11:18:16;;;;;;;13.43;5.93;;;;;;;23.19;43.89;96391.72;4977078;28;20257;-66
2022/04/14 11:21:00;;;;;;;11.07;5.60;;;;;;;23.64;43.16;96385.75;4976503;28;20731;-66
2022/04/14 11:23:29;;;;;;;10.75;5.40;;;;;;;23.18;43.37;96382.00;4975952;28;20241;-67
2022/04/14 11:26:08;;;;;;;9.05;4.93;;;;;;;23.73;41.74;96376.19;4976962;28;20223;-67
2022/04/14 11:28:38;;;;;;;10.93;5.00;;;;;;;23.76;44.61;96380.25;4976487;28;20763;-67
2022/04/14 11:31:22;;;;;;;9.10;4.80;;;;;;;24.33;41.99;96380.19;4976856;28;20199;-67